sensor_id;sensor_type;location;lat;lon;timestamp;temperature;humidity
326;DHT22;150;52.352;14.058;2023-02-28T00:00:24;4.40;30.30
326;DHT22;150;52.352;14.058;2023-02-28T00:02:51;4.40;30.20
326;DHT22;150;52.352;14.058;2023-02-28T00:05:19;4.40;30.20
326;DHT22;150;52.352;14.058;2023-02-28T00:07:47;4.30;30.00
326;DHT22;150;52.352;14.058;2023-02-28T00:10:18;4.30;30.40
326;DHT22;150;52.352;14.058;2023-02-28T00:12:46;4.30;30.90
326;DHT22;150;52.352;14.058;2023-02-28T00:15:13;4.20;30.50
326;DHT22;150;52.352;14.058;2023-02-28T00:17:40;4.10;30.80
326;DHT22;150;52.352;14.058;2023-02-28T00:20:08;4.10;30.90
326;DHT22;150;52.352;14.058;2023-02-28T00:22:36;4.00;30.90
326;DHT22;150;52.352;14.058;2023-02-28T00:25:03;4.10;31.50
326;DHT22;150;52.352;14.058;2023-02-28T00:27:31;4.00;30.50
326;DHT22;150;52.352;14.058;2023-02-28T00:29:58;3.90;31.00
326;DHT22;150;52.352;14.058;2023-02-28T00:32:25;4.00;31.00
326;DHT22;150;52.352;14.058;2023-02-28T00:34:51;4.00;31.00
326;DHT22;150;52.352;14.058;2023-02-28T00:37:18;3.90;31.00
326;DHT22;150;52.352;14.058;2023-02-28T00:39:45;3.90;30.80
326;DHT22;150;52.352;14.058;2023-02-28T00:42:11;3.90;31.30
326;DHT22;150;52.352;14.058;2023-02-28T00:44:39;3.90;31.50
326;DHT22;150;52.352;14.058;2023-02-28T00:47:06;4.00;31.60
326;DHT22;150;52.352;14.058;2023-02-28T00:49:33;4.00;31.80
326;DHT22;150;52.352;14.058;2023-02-28T00:51:59;3.90;31.60
326;DHT22;150;52.352;14.058;2023-02-28T00:54:26;3.90;31.70
326;DHT22;150;52.352;14.058;2023-02-28T00:56:53;3.90;31.60
326;DHT22;150;52.352;14.058;2023-02-28T00:59:20;4.00;31.80
326;DHT22;150;52.352;14.058;2023-02-28T01:01:48;4.00;31.60
326;DHT22;150;52.352;14.058;2023-02-28T01:04:15;4.00;31.70
326;DHT22;150;52.352;14.058;2023-02-28T01:06:41;3.90;31.70
326;DHT22;150;52.352;14.058;2023-02-28T01:09:09;4.00;31.60
326;DHT22;150;52.352;14.058;2023-02-28T01:11:35;4.00;31.50
326;DHT22;150;52.352;14.058;2023-02-28T01:14:03;4.00;31.40
326;DHT22;150;52.352;14.058;2023-02-28T01:16:30;3.90;31.60
326;DHT22;150;52.352;14.058;2023-02-28T01:18:58;3.90;31.70
326;DHT22;150;52.352;14.058;2023-02-28T01:21:25;4.00;31.60
326;DHT22;150;52.352;14.058;2023-02-28T01:23:51;3.90;31.30
326;DHT22;150;52.352;14.058;2023-02-28T01:26:20;3.90;31.60
326;DHT22;150;52.352;14.058;2023-02-28T02:11:39;2.70;33.70
326;DHT22;150;52.352;14.058;2023-02-28T02:15:11;2.60;34.50
326;DHT22;150;52.352;14.058;2023-02-28T02:20:42;2.50;34.70
326;DHT22;150;52.352;14.058;2023-02-28T03:03:57;1.60;37.00
326;DHT22;150;52.352;14.058;2023-02-28T03:06:53;1.60;37.10
326;DHT22;150;52.352;14.058;2023-02-28T03:35:22;1.20;36.80
326;DHT22;150;52.352;14.058;2023-02-28T03:37:53;1.20;36.80
326;DHT22;150;52.352;14.058;2023-02-28T03:40:23;1.10;36.70
326;DHT22;150;52.352;14.058;2023-02-28T03:42:54;1.10;36.70
326;DHT22;150;52.352;14.058;2023-02-28T03:45:25;1.10;37.00
326;DHT22;150;52.352;14.058;2023-02-28T03:47:55;1.10;37.70
326;DHT22;150;52.352;14.058;2023-02-28T03:50:29;1.10;37.40
326;DHT22;150;52.352;14.058;2023-02-28T03:53:04;1.10;37.60
326;DHT22;150;52.352;14.058;2023-02-28T03:55:42;1.00;37.10
326;DHT22;150;52.352;14.058;2023-02-28T03:58:14;0.90;36.50
326;DHT22;150;52.352;14.058;2023-02-28T04:00:46;0.90;36.80
326;DHT22;150;52.352;14.058;2023-02-28T04:03:22;0.90;37.10
326;DHT22;150;52.352;14.058;2023-02-28T04:05:59;0.90;37.40
326;DHT22;150;52.352;14.058;2023-02-28T04:08:25;0.80;37.10
326;DHT22;150;52.352;14.058;2023-02-28T04:10:57;0.80;37.40
326;DHT22;150;52.352;14.058;2023-02-28T04:13:27;0.70;37.60
326;DHT22;150;52.352;14.058;2023-02-28T04:15:59;0.80;37.90
326;DHT22;150;52.352;14.058;2023-02-28T04:18:26;0.70;37.40
326;DHT22;150;52.352;14.058;2023-02-28T04:20:59;0.70;37.40
326;DHT22;150;52.352;14.058;2023-02-28T04:23:26;0.70;37.50
326;DHT22;150;52.352;14.058;2023-02-28T04:26:00;0.70;37.60
326;DHT22;150;52.352;14.058;2023-02-28T04:28:27;1.00;38.80
326;DHT22;150;52.352;14.058;2023-02-28T04:30:59;0.70;38.30
326;DHT22;150;52.352;14.058;2023-02-28T04:33:30;0.70;38.40
326;DHT22;150;52.352;14.058;2023-02-28T04:36:03;0.60;37.60
326;DHT22;150;52.352;14.058;2023-02-28T04:38:32;0.60;37.60
326;DHT22;150;52.352;14.058;2023-02-28T04:41:08;0.60;37.90
326;DHT22;150;52.352;14.058;2023-02-28T04:43:35;0.50;38.00
326;DHT22;150;52.352;14.058;2023-02-28T04:46:09;1.10;38.40
326;DHT22;150;52.352;14.058;2023-02-28T04:48:43;0.50;38.60
326;DHT22;150;52.352;14.058;2023-02-28T04:51:13;0.50;38.60
326;DHT22;150;52.352;14.058;2023-02-28T04:53:44;0.60;37.60
326;DHT22;150;52.352;14.058;2023-02-28T04:56:12;0.50;38.10
326;DHT22;150;52.352;14.058;2023-02-28T04:58:39;0.50;37.00
326;DHT22;150;52.352;14.058;2023-02-28T05:01:15;0.40;37.10
326;DHT22;150;52.352;14.058;2023-02-28T05:03:43;0.40;36.10
326;DHT22;150;52.352;14.058;2023-02-28T05:06:13;0.40;36.50
326;DHT22;150;52.352;14.058;2023-02-28T05:08:40;0.30;36.00
326;DHT22;150;52.352;14.058;2023-02-28T05:11:13;0.30;36.80
326;DHT22;150;52.352;14.058;2023-02-28T05:13:40;0.30;36.80
326;DHT22;150;52.352;14.058;2023-02-28T05:16:07;0.20;36.20
326;DHT22;150;52.352;14.058;2023-02-28T05:18:34;0.20;36.40
326;DHT22;150;52.352;14.058;2023-02-28T05:21:00;0.20;36.60
326;DHT22;150;52.352;14.058;2023-02-28T05:23:29;0.20;36.70
326;DHT22;150;52.352;14.058;2023-02-28T05:25:56;0.20;36.80
326;DHT22;150;52.352;14.058;2023-02-28T05:28:23;0.20;36.90
326;DHT22;150;52.352;14.058;2023-02-28T05:30:49;0.10;37.00
326;DHT22;150;52.352;14.058;2023-02-28T05:33:16;0.10;36.80
326;DHT22;150;52.352;14.058;2023-02-28T05:35:43;0.10;35.90
326;DHT22;150;52.352;14.058;2023-02-28T05:38:09;0.10;36.00
326;DHT22;150;52.352;14.058;2023-02-28T05:40:39;0.00;36.20
326;DHT22;150;52.352;14.058;2023-02-28T05:43:07;0.00;36.20
326;DHT22;150;52.352;14.058;2023-02-28T05:45:35;-0.10;36.10
326;DHT22;150;52.352;14.058;2023-02-28T05:48:02;-0.10;36.20
326;DHT22;150;52.352;14.058;2023-02-28T05:50:29;-0.10;36.90
326;DHT22;150;52.352;14.058;2023-02-28T05:52:55;-0.10;37.80
326;DHT22;150;52.352;14.058;2023-02-28T05:55:22;0.00;38.40
326;DHT22;150;52.352;14.058;2023-02-28T05:57:50;0.00;38.60
326;DHT22;150;52.352;14.058;2023-02-28T06:00:18;0.00;38.60
326;DHT22;150;52.352;14.058;2023-02-28T06:02:44;0.00;38.70
326;DHT22;150;52.352;14.058;2023-02-28T06:05:14;0.10;38.90
326;DHT22;150;52.352;14.058;2023-02-28T06:07:41;0.10;38.70
326;DHT22;150;52.352;14.058;2023-02-28T06:10:08;0.20;38.60
326;DHT22;150;52.352;14.058;2023-02-28T06:12:35;0.20;38.40
326;DHT22;150;52.352;14.058;2023-02-28T06:15:03;0.20;38.10
326;DHT22;150;52.352;14.058;2023-02-28T06:17:30;0.20;37.10
326;DHT22;150;52.352;14.058;2023-02-28T06:19:57;0.20;36.80
326;DHT22;150;52.352;14.058;2023-02-28T06:22:25;0.20;36.50
326;DHT22;150;52.352;14.058;2023-02-28T06:24:52;0.20;37.10
326;DHT22;150;52.352;14.058;2023-02-28T06:27:20;0.30;37.40
326;DHT22;150;52.352;14.058;2023-02-28T06:29:47;0.30;37.00
326;DHT22;150;52.352;14.058;2023-02-28T06:32:15;0.40;37.30
326;DHT22;150;52.352;14.058;2023-02-28T06:34:42;0.30;36.10
326;DHT22;150;52.352;14.058;2023-02-28T06:37:08;0.40;36.40
326;DHT22;150;52.352;14.058;2023-02-28T06:39:35;0.40;36.70
326;DHT22;150;52.352;14.058;2023-02-28T06:42:02;0.50;37.30
326;DHT22;150;52.352;14.058;2023-02-28T06:44:29;0.60;38.00
326;DHT22;150;52.352;14.058;2023-02-28T06:47:01;0.70;37.40
326;DHT22;150;52.352;14.058;2023-02-28T06:49:31;0.80;37.30
326;DHT22;150;52.352;14.058;2023-02-28T06:51:58;0.90;36.90
326;DHT22;150;52.352;14.058;2023-02-28T06:54:25;1.00;36.60
326;DHT22;150;52.352;14.058;2023-02-28T06:56:52;1.10;36.70
326;DHT22;150;52.352;14.058;2023-02-28T06:59:20;1.20;36.80
326;DHT22;150;52.352;14.058;2023-02-28T07:01:47;1.30;36.90
326;DHT22;150;52.352;14.058;2023-02-28T07:04:14;1.50;37.00
326;DHT22;150;52.352;14.058;2023-02-28T07:06:42;1.60;36.40
326;DHT22;150;52.352;14.058;2023-02-28T07:09:09;1.70;36.20
326;DHT22;150;52.352;14.058;2023-02-28T07:11:36;1.80;36.20
326;DHT22;150;52.352;14.058;2023-02-28T07:14:03;2.00;36.50
326;DHT22;150;52.352;14.058;2023-02-28T07:16:30;2.10;36.30
326;DHT22;150;52.352;14.058;2023-02-28T07:18:56;2.20;36.00
326;DHT22;150;52.352;14.058;2023-02-28T07:21:23;2.40;35.50
326;DHT22;150;52.352;14.058;2023-02-28T07:23:55;2.50;35.40
326;DHT22;150;52.352;14.058;2023-02-28T07:26:22;2.60;35.10
326;DHT22;150;52.352;14.058;2023-02-28T07:28:49;2.80;35.00
326;DHT22;150;52.352;14.058;2023-02-28T07:35:43;3.00;33.70
326;DHT22;150;52.352;14.058;2023-02-28T07:38:43;3.20;33.20
326;DHT22;150;52.352;14.058;2023-02-28T07:45:31;3.40;31.30
326;DHT22;150;52.352;14.058;2023-02-28T07:51:12;3.70;30.80
326;DHT22;150;52.352;14.058;2023-02-28T07:53:39;3.80;30.30
326;DHT22;150;52.352;14.058;2023-02-28T07:56:06;3.90;30.00
326;DHT22;150;52.352;14.058;2023-02-28T07:58:33;4.00;29.90
326;DHT22;150;52.352;14.058;2023-02-28T08:01:07;4.10;29.60
326;DHT22;150;52.352;14.058;2023-02-28T08:03:34;4.20;29.00
326;DHT22;150;52.352;14.058;2023-02-28T08:06:02;4.20;28.30
326;DHT22;150;52.352;14.058;2023-02-28T08:08:28;4.30;28.30
326;DHT22;150;52.352;14.058;2023-02-28T08:10:58;4.40;28.10
326;DHT22;150;52.352;14.058;2023-02-28T08:13:25;4.50;27.00
326;DHT22;150;52.352;14.058;2023-02-28T08:15:52;4.60;25.80
326;DHT22;150;52.352;14.058;2023-02-28T08:18:20;4.50;24.50
326;DHT22;150;52.352;14.058;2023-02-28T08:20:47;4.40;25.00
326;DHT22;150;52.352;14.058;2023-02-28T08:23:13;4.40;25.60
326;DHT22;150;52.352;14.058;2023-02-28T08:25:40;4.40;25.30
326;DHT22;150;52.352;14.058;2023-02-28T08:28:07;4.50;25.00
326;DHT22;150;52.352;14.058;2023-02-28T08:30:33;4.60;25.10
326;DHT22;150;52.352;14.058;2023-02-28T08:33:00;4.60;24.50
326;DHT22;150;52.352;14.058;2023-02-28T08:35:28;4.50;24.50
326;DHT22;150;52.352;14.058;2023-02-28T08:37:55;4.70;24.60
326;DHT22;150;52.352;14.058;2023-02-28T08:40:22;4.60;24.50
326;DHT22;150;52.352;14.058;2023-02-28T08:42:48;4.70;24.00
326;DHT22;150;52.352;14.058;2023-02-28T08:45:15;4.80;24.10
326;DHT22;150;52.352;14.058;2023-02-28T08:47:42;5.00;24.60
326;DHT22;150;52.352;14.058;2023-02-28T08:50:09;5.10;23.80
326;DHT22;150;52.352;14.058;2023-02-28T08:52:38;5.20;23.00
326;DHT22;150;52.352;14.058;2023-02-28T08:55:05;5.30;22.60
326;DHT22;150;52.352;14.058;2023-02-28T08:57:32;5.50;21.40
326;DHT22;150;52.352;14.058;2023-02-28T08:59:59;5.60;21.50
326;DHT22;150;52.352;14.058;2023-02-28T09:02:27;5.60;20.80
326;DHT22;150;52.352;14.058;2023-02-28T09:04:53;5.50;20.50
326;DHT22;150;52.352;14.058;2023-02-28T09:07:20;5.60;19.40
326;DHT22;150;52.352;14.058;2023-02-28T09:09:48;5.70;20.60
326;DHT22;150;52.352;14.058;2023-02-28T09:12:21;5.80;19.90
326;DHT22;150;52.352;14.058;2023-02-28T09:14:48;6.00;19.70
326;DHT22;150;52.352;14.058;2023-02-28T09:17:15;6.00;18.90
326;DHT22;150;52.352;14.058;2023-02-28T09:19:41;6.20;18.70
326;DHT22;150;52.352;14.058;2023-02-28T09:22:08;6.20;18.00
326;DHT22;150;52.352;14.058;2023-02-28T09:24:35;6.30;17.50
326;DHT22;150;52.352;14.058;2023-02-28T09:27:04;6.20;16.90
326;DHT22;150;52.352;14.058;2023-02-28T09:29:31;6.20;16.20
326;DHT22;150;52.352;14.058;2023-02-28T09:31:58;6.30;15.30
326;DHT22;150;52.352;14.058;2023-02-28T09:34:25;6.40;15.20
326;DHT22;150;52.352;14.058;2023-02-28T09:36:51;6.40;15.80
326;DHT22;150;52.352;14.058;2023-02-28T09:39:21;6.40;15.70
326;DHT22;150;52.352;14.058;2023-02-28T09:41:50;6.40;15.80
326;DHT22;150;52.352;14.058;2023-02-28T09:44:25;6.50;15.60
326;DHT22;150;52.352;14.058;2023-02-28T09:46:57;6.50;15.40
326;DHT22;150;52.352;14.058;2023-02-28T09:49:31;6.60;15.50
326;DHT22;150;52.352;14.058;2023-02-28T09:52:01;6.70;15.00
326;DHT22;150;52.352;14.058;2023-02-28T09:54:31;6.90;14.20
326;DHT22;150;52.352;14.058;2023-02-28T09:57:00;6.80;14.90
326;DHT22;150;52.352;14.058;2023-02-28T09:59:39;6.90;14.00
326;DHT22;150;52.352;14.058;2023-02-28T10:02:39;6.80;14.00
326;DHT22;150;52.352;14.058;2023-02-28T10:05:11;6.70;15.20
326;DHT22;150;52.352;14.058;2023-02-28T10:07:52;6.70;14.90
326;DHT22;150;52.352;14.058;2023-02-28T10:10:24;6.70;14.50
326;DHT22;150;52.352;14.058;2023-02-28T10:12:54;6.80;13.80
326;DHT22;150;52.352;14.058;2023-02-28T10:15:25;6.70;14.80
326;DHT22;150;52.352;14.058;2023-02-28T10:17:56;6.70;14.40
326;DHT22;150;52.352;14.058;2023-02-28T10:20:24;6.90;14.80
326;DHT22;150;52.352;14.058;2023-02-28T10:22:58;6.90;13.50
326;DHT22;150;52.352;14.058;2023-02-28T10:25:32;7.10;13.70
326;DHT22;150;52.352;14.058;2023-02-28T10:28:11;7.10;13.70
326;DHT22;150;52.352;14.058;2023-02-28T10:30:42;7.10;13.70
326;DHT22;150;52.352;14.058;2023-02-28T10:33:18;7.10;13.70
326;DHT22;150;52.352;14.058;2023-02-28T10:35:45;7.10;13.70
326;DHT22;150;52.352;14.058;2023-02-28T10:38:16;7.20;13.70
326;DHT22;150;52.352;14.058;2023-02-28T10:40:43;7.30;13.40
326;DHT22;150;52.352;14.058;2023-02-28T10:43:20;7.30;12.20
326;DHT22;150;52.352;14.058;2023-02-28T10:46:00;7.30;12.00
326;DHT22;150;52.352;14.058;2023-02-28T10:48:32;7.30;13.20
326;DHT22;150;52.352;14.058;2023-02-28T10:51:00;7.30;12.50
326;DHT22;150;52.352;14.058;2023-02-28T10:53:39;7.00;12.80
326;DHT22;150;52.352;14.058;2023-02-28T10:56:16;7.00;13.60
326;DHT22;150;52.352;14.058;2023-02-28T10:58:52;7.20;12.80
326;DHT22;150;52.352;14.058;2023-02-28T11:01:23;7.50;12.60
326;DHT22;150;52.352;14.058;2023-02-28T11:03:51;7.50;11.00
326;DHT22;150;52.352;14.058;2023-02-28T11:06:20;7.10;11.90
326;DHT22;150;52.352;14.058;2023-02-28T11:08:50;7.20;12.70
326;DHT22;150;52.352;14.058;2023-02-28T11:11:18;7.30;11.90
326;DHT22;150;52.352;14.058;2023-02-28T11:13:47;7.00;12.30
326;DHT22;150;52.352;14.058;2023-02-28T11:16:15;7.10;12.50
326;DHT22;150;52.352;14.058;2023-02-28T11:18:48;7.20;12.60
326;DHT22;150;52.352;14.058;2023-02-28T11:21:21;7.40;12.80
326;DHT22;150;52.352;14.058;2023-02-28T11:23:50;7.40;12.30
326;DHT22;150;52.352;14.058;2023-02-28T11:26:36;7.40;11.80
326;DHT22;150;52.352;14.058;2023-02-28T11:29:11;7.50;11.40
326;DHT22;150;52.352;14.058;2023-02-28T11:31:38;7.40;11.80
326;DHT22;150;52.352;14.058;2023-02-28T11:34:23;7.50;11.70
326;DHT22;150;52.352;14.058;2023-02-28T11:36:51;7.70;12.00
326;DHT22;150;52.352;14.058;2023-02-28T11:39:19;7.40;12.40
326;DHT22;150;52.352;14.058;2023-02-28T11:44:49;7.40;12.10
326;DHT22;150;52.352;14.058;2023-02-28T11:47:28;7.50;13.20
326;DHT22;150;52.352;14.058;2023-02-28T11:50:09;7.30;13.80
326;DHT22;150;52.352;14.058;2023-02-28T11:52:43;7.40;13.40
326;DHT22;150;52.352;14.058;2023-02-28T11:55:17;7.30;13.40
326;DHT22;150;52.352;14.058;2023-02-28T11:58:14;7.00;13.30
326;DHT22;150;52.352;14.058;2023-02-28T12:00:55;6.90;13.50
326;DHT22;150;52.352;14.058;2023-02-28T12:03:28;6.90;13.60
326;DHT22;150;52.352;14.058;2023-02-28T12:06:06;7.00;13.60
326;DHT22;150;52.352;14.058;2023-02-28T12:08:44;7.20;13.70
326;DHT22;150;52.352;14.058;2023-02-28T12:11:19;7.30;13.80
326;DHT22;150;52.352;14.058;2023-02-28T12:13:56;7.20;13.80
326;DHT22;150;52.352;14.058;2023-02-28T12:16:43;7.20;13.60
326;DHT22;150;52.352;14.058;2023-02-28T12:19:18;7.10;13.70
326;DHT22;150;52.352;14.058;2023-02-28T12:22:01;7.20;13.70
326;DHT22;150;52.352;14.058;2023-02-28T12:27:33;6.90;13.50
326;DHT22;150;52.352;14.058;2023-02-28T12:30:03;6.90;14.10
326;DHT22;150;52.352;14.058;2023-02-28T12:32:36;7.00;13.60
326;DHT22;150;52.352;14.058;2023-02-28T12:35:06;7.10;13.70
326;DHT22;150;52.352;14.058;2023-02-28T12:37:42;7.20;13.30
326;DHT22;150;52.352;14.058;2023-02-28T12:40:13;6.90;13.50
326;DHT22;150;52.352;14.058;2023-02-28T12:42:44;6.90;13.90
326;DHT22;150;52.352;14.058;2023-02-28T12:45:17;7.10;13.70
326;DHT22;150;52.352;14.058;2023-02-28T12:47:48;7.20;13.10
326;DHT22;150;52.352;14.058;2023-02-28T12:50:17;7.00;13.60
326;DHT22;150;52.352;14.058;2023-02-28T12:52:53;7.10;13.70
326;DHT22;150;52.352;14.058;2023-02-28T12:55:27;7.20;13.70
326;DHT22;150;52.352;14.058;2023-02-28T12:58:02;7.30;13.20
326;DHT22;150;52.352;14.058;2023-02-28T13:00:35;7.50;13.60
326;DHT22;150;52.352;14.058;2023-02-28T13:03:28;7.50;12.80
326;DHT22;150;52.352;14.058;2023-02-28T13:06:22;7.50;13.70
326;DHT22;150;52.352;14.058;2023-02-28T13:09:09;7.60;14.00
326;DHT22;150;52.352;14.058;2023-02-28T13:11:40;7.70;13.30
326;DHT22;150;52.352;14.058;2023-02-28T13:14:23;7.60;14.00
326;DHT22;150;52.352;14.058;2023-02-28T13:16:56;7.70;14.10
326;DHT22;150;52.352;14.058;2023-02-28T13:19:25;7.70;13.20
326;DHT22;150;52.352;14.058;2023-02-28T13:21:53;7.50;13.90
326;DHT22;150;52.352;14.058;2023-02-28T13:24:44;7.30;13.80
326;DHT22;150;52.352;14.058;2023-02-28T13:29:56;7.50;13.40
326;DHT22;150;52.352;14.058;2023-02-28T13:32:41;7.50;14.00
326;DHT22;150;52.352;14.058;2023-02-28T13:38:42;7.10;13.70
326;DHT22;150;52.352;14.058;2023-02-28T13:41:42;7.30;13.80
326;DHT22;150;52.352;14.058;2023-02-28T13:44:11;7.40;14.20
326;DHT22;150;52.352;14.058;2023-02-28T13:47:20;7.40;14.80
326;DHT22;150;52.352;14.058;2023-02-28T13:49:52;6.90;14.50
326;DHT22;150;52.352;14.058;2023-02-28T13:52:27;7.00;15.10
326;DHT22;150;52.352;14.058;2023-02-28T13:55:17;7.10;15.50
326;DHT22;150;52.352;14.058;2023-02-28T13:58:16;7.10;15.00
326;DHT22;150;52.352;14.058;2023-02-28T14:01:15;7.40;14.80
326;DHT22;150;52.352;14.058;2023-02-28T14:04:04;7.50;14.20
326;DHT22;150;52.352;14.058;2023-02-28T14:06:33;7.50;13.90
326;DHT22;150;52.352;14.058;2023-02-28T14:09:16;7.50;14.00
326;DHT22;150;52.352;14.058;2023-02-28T14:11:45;7.60;14.00
326;DHT22;150;52.352;14.058;2023-02-28T14:17:19;7.40;13.80
326;DHT22;150;52.352;14.058;2023-02-28T14:19:48;7.20;14.40
326;DHT22;150;52.352;14.058;2023-02-28T14:22:50;7.20;14.20
326;DHT22;150;52.352;14.058;2023-02-28T14:25:31;7.30;14.30
326;DHT22;150;52.352;14.058;2023-02-28T14:28:13;7.20;14.10
326;DHT22;150;52.352;14.058;2023-02-28T14:31:06;7.10;14.70
326;DHT22;150;52.352;14.058;2023-02-28T14:33:54;7.20;14.20
326;DHT22;150;52.352;14.058;2023-02-28T14:36:43;6.90;14.70
326;DHT22;150;52.352;14.058;2023-02-28T14:39:22;6.90;13.60
326;DHT22;150;52.352;14.058;2023-02-28T14:42:03;6.90;15.00
326;DHT22;150;52.352;14.058;2023-02-28T14:44:38;6.80;14.80
326;DHT22;150;52.352;14.058;2023-02-28T14:47:17;6.80;15.30
326;DHT22;150;52.352;14.058;2023-02-28T14:49:53;6.80;14.50
326;DHT22;150;52.352;14.058;2023-02-28T14:52:35;6.80;14.50
326;DHT22;150;52.352;14.058;2023-02-28T14:58:03;6.60;14.70
326;DHT22;150;52.352;14.058;2023-02-28T15:04:26;6.60;14.40
326;DHT22;150;52.352;14.058;2023-02-28T15:07:23;6.30;14.90
326;DHT22;150;52.352;14.058;2023-02-28T15:10:24;6.50;15.70
326;DHT22;150;52.352;14.058;2023-02-28T15:13:02;6.50;14.90
326;DHT22;150;52.352;14.058;2023-02-28T15:15:44;6.40;15.90
326;DHT22;150;52.352;14.058;2023-02-28T15:18:26;6.70;14.70
326;DHT22;150;52.352;14.058;2023-02-28T15:21:05;6.70;14.70
326;DHT22;150;52.352;14.058;2023-02-28T15:23:55;6.60;14.50
326;DHT22;150;52.352;14.058;2023-02-28T15:26:38;6.70;14.20
326;DHT22;150;52.352;14.058;2023-02-28T15:29:08;6.50;15.10
326;DHT22;150;52.352;14.058;2023-02-28T15:31:43;6.60;15.20
326;DHT22;150;52.352;14.058;2023-02-28T15:34:19;6.70;14.80
326;DHT22;150;52.352;14.058;2023-02-28T15:36:49;6.70;15.60
326;DHT22;150;52.352;14.058;2023-02-28T15:39:42;6.70;14.80
326;DHT22;150;52.352;14.058;2023-02-28T15:42:20;6.50;15.00
326;DHT22;150;52.352;14.058;2023-02-28T15:44:52;6.50;15.00
326;DHT22;150;52.352;14.058;2023-02-28T15:47:21;6.60;15.10
326;DHT22;150;52.352;14.058;2023-02-28T15:49:56;6.60;15.30
326;DHT22;150;52.352;14.058;2023-02-28T15:52:33;6.50;14.60
326;DHT22;150;52.352;14.058;2023-02-28T15:55:14;6.40;15.20
326;DHT22;150;52.352;14.058;2023-02-28T15:57:51;6.40;14.60
326;DHT22;150;52.352;14.058;2023-02-28T16:00:21;6.30;15.10
326;DHT22;150;52.352;14.058;2023-02-28T16:02:48;6.30;14.80
326;DHT22;150;52.352;14.058;2023-02-28T16:05:24;6.30;15.00
326;DHT22;150;52.352;14.058;2023-02-28T16:07:57;6.30;15.20
326;DHT22;150;52.352;14.058;2023-02-28T16:10:27;6.20;15.50
326;DHT22;150;52.352;14.058;2023-02-28T16:12:57;6.00;16.00
326;DHT22;150;52.352;14.058;2023-02-28T16:15:27;6.40;16.40
326;DHT22;150;52.352;14.058;2023-02-28T16:18:14;6.10;16.00
326;DHT22;150;52.352;14.058;2023-02-28T16:20:53;6.20;17.10
326;DHT22;150;52.352;14.058;2023-02-28T16:23:20;5.90;16.80
326;DHT22;150;52.352;14.058;2023-02-28T16:25:56;6.00;16.60
326;DHT22;150;52.352;14.058;2023-02-28T16:28:26;5.90;16.60
326;DHT22;150;52.352;14.058;2023-02-28T16:31:05;5.90;16.10
326;DHT22;150;52.352;14.058;2023-02-28T16:33:34;5.90;16.40
326;DHT22;150;52.352;14.058;2023-02-28T16:36:05;5.90;16.60
326;DHT22;150;52.352;14.058;2023-02-28T16:38:41;5.80;16.60
326;DHT22;150;52.352;14.058;2023-02-28T16:41:12;5.70;16.80
326;DHT22;150;52.352;14.058;2023-02-28T16:43:45;5.80;17.00
326;DHT22;150;52.352;14.058;2023-02-28T16:46:13;5.60;16.90
326;DHT22;150;52.352;14.058;2023-02-28T16:48:47;5.60;17.00
326;DHT22;150;52.352;14.058;2023-02-28T16:51:25;5.60;17.10
326;DHT22;150;52.352;14.058;2023-02-28T16:54:03;5.50;17.10
326;DHT22;150;52.352;14.058;2023-02-28T16:56:44;5.50;17.20
326;DHT22;150;52.352;14.058;2023-02-28T16:59:21;5.50;17.50
326;DHT22;150;52.352;14.058;2023-02-28T17:01:48;6.00;18.30
326;DHT22;150;52.352;14.058;2023-02-28T17:04:25;5.40;17.90
326;DHT22;150;52.352;14.058;2023-02-28T17:06:52;5.30;18.30
326;DHT22;150;52.352;14.058;2023-02-28T17:09:30;5.30;18.50
326;DHT22;150;52.352;14.058;2023-02-28T17:12:06;5.20;18.80
326;DHT22;150;52.352;14.058;2023-02-28T17:17:28;5.00;20.10
326;DHT22;150;52.352;14.058;2023-02-28T17:20:12;4.90;19.90
326;DHT22;150;52.352;14.058;2023-02-28T17:22:47;4.80;20.40
326;DHT22;150;52.352;14.058;2023-02-28T17:25:39;4.60;20.80
326;DHT22;150;52.352;14.058;2023-02-28T17:28:21;4.50;21.20
326;DHT22;150;52.352;14.058;2023-02-28T17:30:59;4.50;21.30
326;DHT22;150;52.352;14.058;2023-02-28T17:33:25;4.30;21.40
326;DHT22;150;52.352;14.058;2023-02-28T17:36:01;4.20;21.70
326;DHT22;150;52.352;14.058;2023-02-28T17:38:38;4.10;21.80
326;DHT22;150;52.352;14.058;2023-02-28T17:41:22;4.10;22.10
326;DHT22;150;52.352;14.058;2023-02-28T17:44:00;4.00;22.30
326;DHT22;150;52.352;14.058;2023-02-28T17:46:38;3.80;22.30
326;DHT22;150;52.352;14.058;2023-02-28T17:49:05;3.80;22.40
326;DHT22;150;52.352;14.058;2023-02-28T17:51:45;3.70;22.60
326;DHT22;150;52.352;14.058;2023-02-28T17:54:20;3.70;22.80
326;DHT22;150;52.352;14.058;2023-02-28T17:56:47;3.40;23.20
326;DHT22;150;52.352;14.058;2023-02-28T17:59:26;3.50;23.40
326;DHT22;150;52.352;14.058;2023-02-28T18:01:58;3.40;23.60
326;DHT22;150;52.352;14.058;2023-02-28T18:04:25;3.30;23.90
326;DHT22;150;52.352;14.058;2023-02-28T18:06:52;3.30;24.60
326;DHT22;150;52.352;14.058;2023-02-28T18:09:22;3.20;24.20
326;DHT22;150;52.352;14.058;2023-02-28T18:11:50;3.20;24.50
326;DHT22;150;52.352;14.058;2023-02-28T18:14:18;3.10;24.50
326;DHT22;150;52.352;14.058;2023-02-28T18:16:46;3.10;24.80
326;DHT22;150;52.352;14.058;2023-02-28T18:19:14;3.00;24.80
326;DHT22;150;52.352;14.058;2023-02-28T18:21:42;2.90;24.80
326;DHT22;150;52.352;14.058;2023-02-28T18:24:09;2.90;25.10
326;DHT22;150;52.352;14.058;2023-02-28T18:26:37;2.80;25.30
326;DHT22;150;52.352;14.058;2023-02-28T18:29:15;2.70;25.30
326;DHT22;150;52.352;14.058;2023-02-28T18:31:43;2.70;25.20
326;DHT22;150;52.352;14.058;2023-02-28T18:34:11;2.60;25.40
326;DHT22;150;52.352;14.058;2023-02-28T18:36:37;2.60;25.40
326;DHT22;150;52.352;14.058;2023-02-28T18:39:04;2.50;25.40
326;DHT22;150;52.352;14.058;2023-02-28T18:41:31;2.50;25.50
326;DHT22;150;52.352;14.058;2023-02-28T18:43:59;2.50;25.80
326;DHT22;150;52.352;14.058;2023-02-28T18:46:27;2.50;25.80
326;DHT22;150;52.352;14.058;2023-02-28T18:48:53;2.40;25.80
326;DHT22;150;52.352;14.058;2023-02-28T18:51:23;2.40;25.70
326;DHT22;150;52.352;14.058;2023-02-28T18:53:50;2.30;25.90
326;DHT22;150;52.352;14.058;2023-02-28T18:56:20;2.30;26.20
326;DHT22;150;52.352;14.058;2023-02-28T18:58:48;2.30;26.10
326;DHT22;150;52.352;14.058;2023-02-28T19:01:17;2.20;26.40
326;DHT22;150;52.352;14.058;2023-02-28T19:03:45;2.20;26.40
326;DHT22;150;52.352;14.058;2023-02-28T19:06:12;2.10;26.60
326;DHT22;150;52.352;14.058;2023-02-28T19:08:40;2.10;26.60
326;DHT22;150;52.352;14.058;2023-02-28T19:11:09;2.00;26.70
326;DHT22;150;52.352;14.058;2023-02-28T19:13:36;2.00;26.90
326;DHT22;150;52.352;14.058;2023-02-28T19:16:04;2.00;27.20
326;DHT22;150;52.352;14.058;2023-02-28T19:18:31;1.90;27.50
326;DHT22;150;52.352;14.058;2023-02-28T19:20:58;1.90;27.50
326;DHT22;150;52.352;14.058;2023-02-28T19:23:25;1.90;27.50
326;DHT22;150;52.352;14.058;2023-02-28T19:25:53;1.90;27.50
326;DHT22;150;52.352;14.058;2023-02-28T19:28:21;1.80;27.50
326;DHT22;150;52.352;14.058;2023-02-28T19:30:49;1.80;27.50
326;DHT22;150;52.352;14.058;2023-02-28T19:33:17;1.80;27.50
326;DHT22;150;52.352;14.058;2023-02-28T19:35:44;1.80;27.50